Armington, Montana
Current Conditions -  °F | °C
As of 11:56 AM on Friday 21 Nov 2014 (Local Time) from KGFA Reporting Station
Clear Clear  
Wind Chill: 37°   Ceiling: Unl
Heat Index: 47°   Visibility: 10mi
Dew Point: 29°   Wind: 31mph
Humidity: 51%   Direction: 230°SW
Pressure: 29.78"   Gusts: 40mph
Location:  47.3298°N, 110.893°W
Report Text: KGFA 211856Z AUTO 23027G35KT 10SM CLR 08/M01 A2978 RMK AO2 PK WND 23033/46 SLP104 T00821014
Loading
Personal Weather Stations






























Interactive Weather Map New forecast layout! Learn more

10-Day Weather Forecast

Advertisements
Track Severe Weather on mobile